createdAt,value
2022-10-13T00:01:18.581Z,101866.59
2022-10-13T00:03:47.175Z,101864.97
2022-10-13T00:06:23.150Z,101864.16
2022-10-13T00:08:50.948Z,101856.78
2022-10-13T00:11:24.329Z,101852.53
2022-10-13T00:13:52.584Z,101858.88
2022-10-13T00:16:21.480Z,101853.34
2022-10-13T00:18:49.698Z,101856.56
2022-10-13T00:21:19.976Z,101848.28
2022-10-13T00:23:51.383Z,101849.88
2022-10-13T00:26:22.741Z,101843.22
2022-10-13T00:28:52.927Z,101840.09
2022-10-13T00:31:24.527Z,101837.00
2022-10-13T00:33:53.026Z,101836.88
2022-10-13T00:36:23.107Z,101834.56
2022-10-13T00:38:51.996Z,101831.47
2022-10-13T00:41:20.967Z,101831.47
2022-10-13T00:43:57.742Z,101833.56
2022-10-13T00:46:32.141Z,101835.16
2022-10-13T00:49:12.338Z,101834.00
2022-10-13T00:51:49.503Z,101833.19
2022-10-13T00:54:24.495Z,101832.75
2022-10-13T00:56:53.503Z,101829.84
2022-10-13T00:59:27.141Z,101825.00
2022-10-13T01:01:55.484Z,101825.69
2022-10-13T01:04:27.136Z,101821.19
2022-10-13T01:06:57.002Z,101819.13
2022-10-13T01:09:24.471Z,101819.47
2022-10-13T01:12:13.794Z,101808.41
2022-10-13T01:15:01.374Z,101804.97
2022-10-13T01:17:39.641Z,101800.59
2022-10-13T01:20:15.832Z,101802.91
2022-10-13T01:22:43.128Z,101810.72
2022-10-13T01:25:16.313Z,101798.38
2022-10-13T01:28:01.824Z,101795.28
2022-10-13T01:30:35.309Z,101796.91
2022-10-13T01:33:24.958Z,101785.94
2022-10-13T01:36:07.746Z,101779.72
2022-10-13T01:38:54.855Z,101775.00
2022-10-13T01:41:35.794Z,101772.94
2022-10-13T01:44:22.689Z,101776.97
2022-10-13T01:46:57.005Z,101773.41
2022-10-13T01:49:28.545Z,101769.72
2022-10-13T01:52:00.485Z,101768.09
2022-10-13T01:54:27.839Z,101775.59
2022-10-13T01:56:57.245Z,101772.81
2022-10-13T01:59:27.903Z,101774.00
2022-10-13T02:02:06.287Z,101768.09
2022-10-13T02:05:02.539Z,101771.69
2022-10-13T02:07:56.510Z,101772.50
2022-10-13T02:10:36.424Z,101761.44
2022-10-13T02:13:06.594Z,101759.81
2022-10-13T02:15:47.492Z,101758.66
2022-10-13T02:18:18.773Z,101761.06
2022-10-13T02:20:47.246Z,101751.66
2022-10-13T02:23:17.525Z,101737.69
2022-10-13T02:25:47.030Z,101745.66
2022-10-13T02:28:15.492Z,101742.09
2022-10-13T02:30:44.865Z,101749.25
2022-10-13T02:33:14.323Z,101749.69
2022-10-13T02:35:42.892Z,101744.59
2022-10-13T02:38:11.042Z,101743.47
2022-10-13T02:40:38.489Z,101741.97
2022-10-13T02:43:06.118Z,101744.03
2022-10-13T02:45:33.474Z,101751.06
2022-10-13T02:48:00.820Z,101744.28
2022-10-13T02:50:28.176Z,101751.41
2022-10-13T02:52:57.298Z,101755.22
2022-10-13T02:55:24.850Z,101752.91
2022-10-13T02:57:57.158Z,101754.53
2022-10-13T03:00:24.822Z,101746.69
2022-10-13T03:02:52.228Z,101753.72
2022-10-13T03:05:19.816Z,101747.63
2022-10-13T03:07:47.326Z,101747.75
2022-10-13T03:10:14.721Z,101742.66
2022-10-13T03:12:42.072Z,101739.09
2022-10-13T03:15:09.811Z,101740.72
2022-10-13T03:17:37.117Z,101731.97
2022-10-13T03:20:05.008Z,101741.84
2022-10-13T03:22:33.873Z,101726.06
2022-10-13T03:25:01.243Z,101715.84
2022-10-13T03:27:28.642Z,101707.97
2022-10-13T03:29:56.010Z,101705.69
2022-10-13T03:32:23.592Z,101708.09
2022-10-13T03:34:51.704Z,101708.91
2022-10-13T03:37:19.058Z,101705.00
2022-10-13T03:39:46.574Z,101702.94
2022-10-13T03:42:14.175Z,101699.00
2022-10-13T03:44:41.675Z,101705.69
2022-10-13T03:47:09.129Z,101693.84
2022-10-13T03:49:38.084Z,101698.19
2022-10-13T03:52:05.756Z,101697.84
2022-10-13T03:54:33.506Z,101693.47
2022-10-13T03:57:03.427Z,101694.66
2022-10-13T03:59:36.416Z,101684.84
2022-10-13T04:02:04.784Z,101687.94
2022-10-13T04:04:32.272Z,101688.75
2022-10-13T04:06:59.597Z,101687.50
2022-10-13T04:09:27.534Z,101683.47
2022-10-13T04:11:54.963Z,101685.44
2022-10-13T04:14:22.349Z,101682.66
2022-10-13T04:16:50.000Z,101674.81
2022-10-13T04:19:17.326Z,101674.00
2022-10-13T04:21:44.789Z,101678.75
2022-10-13T04:24:13.574Z,101677.94
2022-10-13T04:26:41.103Z,101677.13
2022-10-13T04:29:10.294Z,101671.59
2022-10-13T04:31:39.072Z,101671.59
2022-10-13T04:34:07.898Z,101674.38
2022-10-13T04:36:35.788Z,101681.16
2022-10-13T04:39:03.980Z,101668.16
2022-10-13T04:41:33.854Z,101669.41
2022-10-13T04:44:02.559Z,101669.41
2022-10-13T04:46:30.786Z,101676.06
2022-10-13T04:48:58.487Z,101670.53
2022-10-13T04:51:32.771Z,101669.06
2022-10-13T04:54:02.090Z,101669.06
2022-10-13T04:56:29.631Z,101675.03
2022-10-13T04:59:02.484Z,101672.28
2022-10-13T05:01:30.016Z,101664.78
2022-10-13T05:04:00.878Z,101652.13
2022-10-13T05:06:30.842Z,101657.66
2022-10-13T05:08:58.490Z,101653.75
2022-10-13T05:11:27.256Z,101658.09
2022-10-13T05:13:55.805Z,101655.00
2022-10-13T05:16:24.149Z,101651.88
2022-10-13T05:18:54.610Z,101644.75
2022-10-13T05:21:27.808Z,101640.81
2022-10-13T05:23:56.995Z,101638.03
2022-10-13T05:26:28.953Z,101631.72
2022-10-13T05:28:57.839Z,101625.72
2022-10-13T05:31:27.670Z,101624.59
2022-10-13T05:33:57.178Z,101637.25
2022-10-13T05:36:30.157Z,101623.88
2022-10-13T05:39:01.300Z,101626.66
2022-10-13T05:41:29.697Z,101614.09
2022-10-13T05:44:01.746Z,101622.50
2022-10-13T05:46:29.388Z,101614.63
2022-10-13T05:48:56.923Z,101610.72
2022-10-13T05:51:28.378Z,101606.34
2022-10-13T05:54:20.857Z,101602.31
2022-10-13T05:57:11.264Z,101612.56
2022-10-13T05:59:43.927Z,101612.22
2022-10-13T06:02:15.127Z,101602.53
2022-10-13T06:04:49.112Z,101612.53
2022-10-13T06:07:17.491Z,101609.06
2022-10-13T06:09:45.199Z,101608.78
2022-10-13T06:12:12.569Z,101606.50
2022-10-13T06:14:40.379Z,101600.25
2022-10-13T06:17:10.463Z,101597.13
2022-10-13T06:19:37.872Z,101593.22
2022-10-13T06:22:09.104Z,101600.00
2022-10-13T06:24:36.521Z,101602.06
2022-10-13T06:27:05.988Z,101604.94
2022-10-13T06:29:33.864Z,101596.63
2022-10-13T06:32:01.340Z,101601.00
2022-10-13T06:34:28.759Z,101609.38
2022-10-13T06:36:56.365Z,101600.38
2022-10-13T06:39:23.967Z,101613.59
2022-10-13T06:41:52.615Z,101605.84
2022-10-13T06:44:20.961Z,101600.88
2022-10-13T06:46:48.465Z,101604.19
2022-10-13T06:49:15.909Z,101608.63
2022-10-13T06:51:43.230Z,101606.41
2022-10-13T06:54:10.579Z,101606.50
2022-10-13T06:56:38.178Z,101602.72
2022-10-13T06:59:11.502Z,101609.22
2022-10-13T07:01:41.686Z,101609.91
2022-10-13T07:04:12.898Z,101605.19
2022-10-13T07:06:40.986Z,101606.88
2022-10-13T07:09:09.215Z,101597.13
2022-10-13T07:11:36.836Z,101601.97
2022-10-13T07:14:04.337Z,101605.72
2022-10-13T07:16:32.350Z,101590.16
2022-10-13T07:18:59.695Z,101598.97
2022-10-13T07:21:27.296Z,101606.22
2022-10-13T07:23:54.759Z,101603.81
2022-10-13T07:26:22.934Z,101602.31
2022-10-13T07:28:50.854Z,101606.22
2022-10-13T07:31:20.078Z,101599.53
2022-10-13T07:33:50.860Z,101606.66
2022-10-13T07:36:19.007Z,101613.19
2022-10-13T07:38:47.032Z,101596.63
2022-10-13T07:41:15.356Z,101601.81
2022-10-13T07:43:42.738Z,101605.09
2022-10-13T07:46:13.411Z,101607.53
2022-10-13T07:48:41.598Z,101605.19
2022-10-13T07:51:11.884Z,101609.56
2022-10-13T07:53:40.920Z,101604.47
2022-10-13T07:56:11.353Z,101610.81
2022-10-13T07:58:40.574Z,101612.88
2022-10-13T08:01:08.339Z,101607.66
2022-10-13T08:03:41.091Z,101612.50
2022-10-13T08:06:15.062Z,101608.56
2022-10-13T08:08:42.886Z,101616.50
2022-10-13T08:11:16.583Z,101611.75
2022-10-13T08:13:50.088Z,101606.31
2022-10-13T08:16:21.294Z,101609.16
2022-10-13T08:18:49.110Z,101607.28
2022-10-13T08:24:09.247Z,101607.13
2022-10-13T08:26:36.845Z,101598.94
2022-10-13T08:31:53.212Z,101595.81
2022-10-13T08:34:23.053Z,101599.97
2022-10-13T08:36:53.671Z,101597.28
2022-10-13T08:39:22.054Z,101602.28
2022-10-13T08:41:49.911Z,101600.81
2022-10-13T08:47:32.500Z,101599.88
2022-10-13T08:50:04.596Z,101594.72
2022-10-13T08:53:25.961Z,101598.31
2022-10-13T08:56:00.929Z,101598.06
2022-10-13T08:58:32.569Z,101596.09
2022-10-13T09:01:09.019Z,101600.22
2022-10-13T09:03:50.787Z,101602.63
2022-10-13T09:06:28.563Z,101597.94
2022-10-13T09:09:05.427Z,101607.63
2022-10-13T09:11:39.675Z,101598.66
2022-10-13T09:14:11.314Z,101605.56
2022-10-13T09:16:42.337Z,101600.13
2022-10-13T09:19:26.566Z,101596.31
2022-10-13T09:22:14.033Z,101604.59
2022-10-13T09:24:41.487Z,101605.69
2022-10-13T09:27:15.012Z,101612.91
2022-10-13T09:29:45.043Z,101596.72
2022-10-13T09:32:23.882Z,101609.00
2022-10-13T09:34:52.971Z,101604.38
2022-10-13T09:37:23.294Z,101607.16
2022-10-13T09:40:15.010Z,101615.00
2022-10-13T09:42:42.823Z,101605.47
2022-10-13T09:45:17.663Z,101605.19
2022-10-13T09:48:06.731Z,101604.38
2022-10-13T09:50:35.968Z,101611.53
2022-10-13T09:53:32.163Z,101609.13
2022-10-13T09:56:27.007Z,101612.84
2022-10-13T09:59:24.424Z,101613.88
2022-10-13T10:01:54.785Z,101614.47
2022-10-13T10:04:43.600Z,101619.41
2022-10-13T10:07:16.195Z,101611.16
2022-10-13T10:09:54.434Z,101612.38
2022-10-13T10:12:27.983Z,101600.94
2022-10-13T10:14:55.895Z,101599.97
2022-10-13T10:17:44.027Z,101594.94
2022-10-13T10:20:36.451Z,101602.56
2022-10-13T10:23:03.914Z,101601.47
2022-10-13T10:25:42.596Z,101600.00
2022-10-13T10:28:10.060Z,101600.00
2022-10-13T10:30:44.156Z,101604.00
2022-10-13T10:33:19.534Z,101602.03
2022-10-13T10:36:03.300Z,101602.44
2022-10-13T10:39:00.289Z,101602.47
2022-10-13T10:41:39.586Z,101606.50
2022-10-13T10:44:17.554Z,101604.91
2022-10-13T10:46:52.033Z,101607.66
2022-10-13T10:49:27.275Z,101607.22
2022-10-13T10:51:55.138Z,101600.44
2022-10-13T10:54:43.931Z,101599.75
2022-10-13T10:57:28.385Z,101601.06
2022-10-13T11:00:06.011Z,101597.66
2022-10-13T11:02:34.737Z,101595.72
2022-10-13T11:05:06.113Z,101601.34
2022-10-13T11:07:34.048Z,101591.03
2022-10-13T11:10:16.729Z,101593.06
2022-10-13T11:12:53.062Z,101593.16
2022-10-13T11:15:20.559Z,101589.22
2022-10-13T11:17:47.919Z,101592.03
2022-10-13T11:20:21.227Z,101588.13
2022-10-13T11:23:00.625Z,101588.13
2022-10-13T11:25:36.106Z,101584.56
2022-10-13T11:28:22.757Z,101586.22
2022-10-13T11:31:17.776Z,101581.84
2022-10-13T11:33:47.811Z,101590.63
2022-10-13T11:36:42.180Z,101589.38
2022-10-13T11:39:28.168Z,101586.97
2022-10-13T11:42:14.364Z,101582.97
2022-10-13T11:45:26.957Z,101580.25
2022-10-13T11:48:11.686Z,101573.09
2022-10-13T11:50:57.554Z,101562.69
2022-10-13T11:53:33.056Z,101569.97
2022-10-13T11:56:03.903Z,101568.38
2022-10-13T11:58:32.773Z,101569.56
2022-10-13T12:01:01.778Z,101565.97
2022-10-13T12:03:38.275Z,101562.00
2022-10-13T12:06:37.079Z,101569.16
2022-10-13T12:09:19.644Z,101557.09
2022-10-13T12:11:55.663Z,101568.66
2022-10-13T12:17:23.360Z,101563.84
2022-10-13T12:19:56.652Z,101564.28
2022-10-13T12:22:24.214Z,101565.13
2022-10-13T12:25:02.876Z,101557.53
2022-10-13T12:27:32.828Z,101555.50
2022-10-13T12:30:04.854Z,101554.69
2022-10-13T12:32:36.043Z,101549.09
2022-10-13T12:35:32.262Z,101550.69
2022-10-13T12:38:07.268Z,101547.09
2022-10-13T12:40:36.071Z,101550.66
2022-10-13T12:43:05.545Z,101546.72
2022-10-13T12:45:35.561Z,101555.50
2022-10-13T12:48:02.973Z,101565.06
2022-10-13T12:50:37.588Z,101549.91
2022-10-13T12:53:13.987Z,101549.91
2022-10-13T12:55:49.288Z,101555.53
2022-10-13T12:58:24.728Z,101547.13
2022-10-13T13:01:04.371Z,101551.13
2022-10-13T13:03:32.382Z,101544.72
2022-10-13T13:06:15.010Z,101545.50
2022-10-13T13:08:43.338Z,101548.72
2022-10-13T13:11:33.214Z,101537.50
2022-10-13T13:14:35.943Z,101537.53
2022-10-13T13:17:17.383Z,101543.59
2022-10-13T13:19:52.623Z,101545.22
2022-10-13T13:22:20.874Z,101547.63
2022-10-13T13:24:50.510Z,101542.44
2022-10-13T13:27:18.108Z,101547.63
2022-10-13T13:29:45.911Z,101551.94
2022-10-13T13:32:20.272Z,101543.16
2022-10-13T13:34:48.589Z,101545.50
2022-10-13T13:37:25.689Z,101552.63
2022-10-13T13:39:53.351Z,101549.78
2022-10-13T13:42:21.104Z,101546.09
2022-10-13T13:44:49.409Z,101538.44
2022-10-13T13:47:23.211Z,101546.31
2022-10-13T13:49:53.702Z,101544.19
2022-10-13T13:52:22.368Z,101546.47
2022-10-13T13:54:53.451Z,101546.00
2022-10-13T13:57:21.943Z,101547.09
2022-10-13T13:59:49.722Z,101544.69
2022-10-13T14:02:21.015Z,101540.13
2022-10-13T14:04:49.310Z,101541.66
2022-10-13T14:07:17.308Z,101536.91
2022-10-13T14:09:46.887Z,101535.28
2022-10-13T14:12:14.648Z,101537.72
2022-10-13T14:14:42.009Z,101547.59
2022-10-13T14:17:13.840Z,101547.22
2022-10-13T14:19:44.020Z,101534.06
2022-10-13T14:22:11.573Z,101537.66
2022-10-13T14:24:39.057Z,101528.91
2022-10-13T14:27:11.643Z,101531.38
2022-10-13T14:29:39.059Z,101531.38
2022-10-13T14:32:06.605Z,101534.94
2022-10-13T14:34:34.127Z,101531.34
2022-10-13T14:37:01.587Z,101533.75
2022-10-13T14:39:29.020Z,101523.47
2022-10-13T14:41:57.060Z,101521.47
2022-10-13T14:44:25.668Z,101520.31
2022-10-13T14:46:53.023Z,101520.31
2022-10-13T14:49:20.873Z,101518.28
2022-10-13T14:51:48.855Z,101522.66
2022-10-13T14:54:17.610Z,101518.66
2022-10-13T14:56:45.258Z,101515.44
2022-10-13T14:59:12.908Z,101520.91
2022-10-13T15:01:44.203Z,101507.66
2022-10-13T15:04:11.898Z,101515.16
2022-10-13T15:06:40.178Z,101509.53
2022-10-13T15:11:41.825Z,101506.69
2022-10-13T15:14:09.901Z,101503.44
2022-10-13T15:16:37.974Z,101501.06
2022-10-13T15:19:06.248Z,101496.66
2022-10-13T15:21:33.600Z,101498.59
2022-10-13T15:24:01.576Z,101498.94
2022-10-13T15:26:29.481Z,101502.91
2022-10-13T15:28:57.038Z,101503.72
2022-10-13T15:31:24.629Z,101503.66
2022-10-13T15:33:54.072Z,101493.78
2022-10-13T15:36:22.636Z,101502.50
2022-10-13T15:38:51.480Z,101490.56
2022-10-13T15:41:28.866Z,101497.34
2022-10-13T15:44:02.249Z,101498.22
2022-10-13T15:46:31.634Z,101491.06
2022-10-13T15:49:00.010Z,101501.38
2022-10-13T15:51:27.473Z,101495.81
2022-10-13T15:53:55.530Z,101493.84
2022-10-13T15:56:22.899Z,101507.00
2022-10-13T15:58:50.435Z,101503.06
2022-10-13T16:01:18.007Z,101503.53
2022-10-13T16:03:45.470Z,101510.31
2022-10-13T16:06:13.724Z,101499.13
2022-10-13T16:08:44.334Z,101506.19
2022-10-13T16:11:14.788Z,101497.31
2022-10-13T16:13:46.237Z,101494.84
2022-10-13T16:16:14.299Z,101497.28
2022-10-13T16:18:42.179Z,101492.38
2022-10-13T16:21:19.323Z,101491.81
2022-10-13T16:23:47.994Z,101493.28
2022-10-13T16:26:17.360Z,101494.72
2022-10-13T16:28:46.875Z,101496.59
2022-10-13T16:31:16.810Z,101496.56
2022-10-13T16:33:45.657Z,101502.91
2022-10-13T16:36:15.912Z,101500.94
2022-10-13T16:38:44.632Z,101498.50
2022-10-13T16:41:14.608Z,101500.50
2022-10-13T16:43:43.420Z,101502.53
2022-10-13T16:46:13.495Z,101495.75
2022-10-13T16:48:42.822Z,101499.34
2022-10-13T16:51:14.493Z,101497.28
2022-10-13T16:53:42.399Z,101497.25
2022-10-13T16:56:10.583Z,101488.09
2022-10-13T16:58:38.178Z,101495.56
2022-10-13T17:01:10.092Z,101487.19
2022-10-13T17:03:38.662Z,101488.69
2022-10-13T17:06:07.138Z,101487.03
2022-10-13T17:08:34.542Z,101486.19
2022-10-13T17:11:04.594Z,101492.06
2022-10-13T17:13:34.138Z,101490.78
2022-10-13T17:16:01.664Z,101495.88
2022-10-13T17:18:29.485Z,101506.59
2022-10-13T17:20:59.381Z,101505.03
2022-10-13T17:23:28.917Z,101508.63
2022-10-13T17:26:02.933Z,101519.38
2022-10-13T17:28:30.388Z,101514.63
2022-10-13T17:30:59.555Z,101522.50
2022-10-13T17:33:28.956Z,101518.16
2022-10-13T17:36:12.084Z,101522.88
2022-10-13T17:38:40.170Z,101532.38
2022-10-13T17:41:09.962Z,101528.00
2022-10-13T17:43:41.842Z,101530.00
2022-10-13T17:46:35.172Z,101540.38
2022-10-13T17:49:01.153Z,101526.09
2022-10-13T17:51:28.717Z,101530.84
2022-10-13T17:53:59.136Z,101524.94
2022-10-13T17:56:27.009Z,101526.16
2022-10-13T17:58:54.987Z,101536.50
2022-10-13T18:01:31.899Z,101541.31
2022-10-13T18:04:08.627Z,101544.53
2022-10-13T18:06:42.640Z,101534.22
2022-10-13T18:09:18.800Z,101545.72
2022-10-13T18:11:50.749Z,101542.13
2022-10-13T18:14:23.609Z,101545.66
2022-10-13T18:16:51.962Z,101549.19
2022-10-13T18:19:20.663Z,101556.28
2022-10-13T18:21:49.416Z,101549.91
2022-10-13T18:24:16.962Z,101547.94
2022-10-13T18:26:44.923Z,101549.91
2022-10-13T18:29:12.975Z,101551.47
2022-10-13T18:31:41.598Z,101553.88
2022-10-13T18:34:14.014Z,101555.03
2022-10-13T18:36:55.085Z,101556.63
2022-10-13T18:39:25.861Z,101566.53
2022-10-13T18:41:54.708Z,101560.16
2022-10-13T18:44:23.430Z,101560.09
2022-10-13T18:46:56.637Z,101563.25
2022-10-13T18:49:31.347Z,101569.63
2022-10-13T18:52:02.549Z,101562.81
2022-10-13T18:54:30.768Z,101566.34
2022-10-13T18:56:58.346Z,101563.94
2022-10-13T18:59:25.850Z,101560.28
2022-10-13T19:01:53.628Z,101566.59
2022-10-13T19:04:22.837Z,101565.81
2022-10-13T19:06:51.097Z,101558.22
2022-10-13T19:09:19.133Z,101564.19
2022-10-13T19:11:46.815Z,101562.22
2022-10-13T19:14:16.957Z,101555.44
2022-10-13T19:16:44.384Z,101558.22
2022-10-13T19:19:12.184Z,101561.34
2022-10-13T19:21:39.950Z,101563.31
2022-10-13T19:24:09.907Z,101565.75
2022-10-13T19:26:38.286Z,101562.50
2022-10-13T19:29:09.457Z,101557.75
2022-10-13T19:31:38.862Z,101560.94
2022-10-13T19:34:10.951Z,101559.69
2022-10-13T19:36:42.496Z,101555.72
2022-10-13T19:39:15.336Z,101556.03
2022-10-13T19:41:45.205Z,101560.38
2022-10-13T19:44:14.124Z,101558.81
2022-10-13T19:46:44.030Z,101562.41
2022-10-13T19:49:13.963Z,101564.38
2022-10-13T19:51:45.936Z,101556.03
2022-10-13T19:54:14.812Z,101561.94
2022-10-13T19:56:46.565Z,101569.50
2022-10-13T19:59:14.599Z,101563.50
2022-10-13T20:01:42.150Z,101563.00
2022-10-13T20:04:18.682Z,101562.13
2022-10-13T20:06:47.351Z,101570.75
2022-10-13T20:09:15.396Z,101553.25
2022-10-13T20:11:46.443Z,101561.13
2022-10-13T20:14:14.813Z,101557.47
2022-10-13T20:16:42.628Z,101564.97
2022-10-13T20:19:16.557Z,101561.38
2022-10-13T20:21:48.004Z,101569.31
2022-10-13T20:24:15.926Z,101563.00
2022-10-13T20:26:43.491Z,101568.88
2022-10-13T20:29:10.994Z,101567.66
2022-10-13T20:31:38.607Z,101573.91
2022-10-13T20:34:06.308Z,101573.91
2022-10-13T20:36:38.557Z,101567.13
2022-10-13T20:39:07.754Z,101565.44
2022-10-13T20:41:35.235Z,101562.53
2022-10-13T20:44:02.960Z,101572.59
2022-10-13T20:46:34.083Z,101573.28
2022-10-13T20:49:17.098Z,101572.31
2022-10-13T20:51:45.106Z,101576.91
2022-10-13T20:54:14.297Z,101579.13
2022-10-13T20:56:42.514Z,101571.56
2022-10-13T20:59:14.825Z,101568.19
2022-10-13T21:01:42.688Z,101570.09
2022-10-13T21:04:10.163Z,101571.53
2022-10-13T21:06:37.922Z,101575.31
2022-10-13T21:09:07.072Z,101575.16
2022-10-13T21:11:36.627Z,101573.38
2022-10-13T21:14:07.054Z,101572.81
2022-10-13T21:16:35.527Z,101570.00
2022-10-13T21:19:08.040Z,101568.28
2022-10-13T21:21:36.342Z,101568.19
2022-10-13T21:24:06.505Z,101570.44
2022-10-13T21:26:35.214Z,101566.06
2022-10-13T21:29:02.902Z,101559.75
2022-10-13T21:31:30.667Z,101550.00
2022-10-13T21:33:58.521Z,101557.13
2022-10-13T21:36:28.771Z,101554.34
2022-10-13T21:38:59.317Z,101552.78
2022-10-13T21:41:28.018Z,101548.91
2022-10-13T21:43:55.620Z,101557.31
2022-10-13T21:46:28.230Z,101561.69
2022-10-13T21:48:59.178Z,101566.03
2022-10-13T21:51:29.635Z,101562.84
2022-10-13T21:54:02.511Z,101562.41
2022-10-13T21:56:32.121Z,101556.69
2022-10-13T21:59:00.547Z,101561.50
2022-10-13T22:01:28.253Z,101567.03
2022-10-13T22:04:01.248Z,101563.03
2022-10-13T22:06:30.364Z,101566.03
2022-10-13T22:08:59.594Z,101562.41
2022-10-13T22:11:30.138Z,101560.34
2022-10-13T22:13:58.711Z,101559.03
2022-10-13T22:16:38.905Z,101566.69
2022-10-13T22:19:06.914Z,101564.44
2022-10-13T22:21:39.921Z,101556.41
2022-10-13T22:24:09.939Z,101563.81
2022-10-13T22:26:39.084Z,101556.59
2022-10-13T22:29:08.250Z,101559.38
2022-10-13T22:31:36.305Z,101549.06
2022-10-13T22:34:09.361Z,101553.81
2022-10-13T22:36:41.031Z,101554.88
2022-10-13T22:39:11.222Z,101552.03
2022-10-13T22:41:38.690Z,101548.81
2022-10-13T22:44:06.111Z,101551.03
2022-10-13T22:46:36.615Z,101552.81
2022-10-13T22:49:05.505Z,101547.09
2022-10-13T22:51:35.173Z,101548.97
2022-10-13T22:54:03.741Z,101553.84
2022-10-13T22:56:33.175Z,101547.31
2022-10-13T22:59:06.900Z,101537.69
2022-10-13T23:01:35.131Z,101550.94
2022-10-13T23:04:03.051Z,101538.09
2022-10-13T23:06:32.382Z,101533.53
2022-10-13T23:09:05.166Z,101522.50
2022-10-13T23:11:32.797Z,101526.69
2022-10-13T23:14:01.622Z,101524.13
2022-10-13T23:16:29.437Z,101526.34
2022-10-13T23:18:57.071Z,101520.13
2022-10-13T23:21:26.989Z,101519.25
2022-10-13T23:24:01.622Z,101520.38
2022-10-13T23:26:29.861Z,101523.25
2022-10-13T23:28:58.089Z,101514.50
2022-10-13T23:31:27.265Z,101512.31
2022-10-13T23:33:55.406Z,101512.31
2022-10-13T23:36:26.893Z,101505.97
2022-10-13T23:39:00.048Z,101510.44
2022-10-13T23:41:28.325Z,101503.75
2022-10-13T23:43:55.716Z,101509.72
2022-10-13T23:46:24.973Z,101508.47
2022-10-13T23:48:52.845Z,101505.63
2022-10-13T23:51:23.605Z,101501.25
2022-10-13T23:53:51.541Z,101503.09
2022-10-13T23:56:19.299Z,101504.25
2022-10-13T23:58:47.538Z,101500.03
